• Join FlightAware (Why Join?)
  • Login
  • US Flag 
12:09PM EDT


 

Airport Tracker/Info


-or-


 

Live Flight TrackerFlight Track Log ✈ N755CC ✈ 26-Jun-2014 ✈ KUUU - KALB

Flight Track Log - Related Links

Times and Time Zones

All times are in EDT time to prevent confusion due to time zone crossing. See the N755CC flight status page for this flight to view local times or setup timezone preferences in your user account.

Time Position Orientation Groundspeed Altitude Reporting Facility
EDT Latitude Longitude Course Direction KTS MPH feet Rate Location/Type
11:04AM 41.7636 -71.1869 316° Northwest 195 224 1,500  Level Boston Center
11:05AM 41.8128 -71.1939 354° North 187 215 1,500 -60 Level Boston Center
11:06AM 41.5594 -71.2686 192° South 79 91 1,400 420 Descending Boston Center
11:07AM 41.5867 -71.2411 37° Northeast 88 101 2,700  Climbing Boston Center
11:08AM 41.8408 -71.3292 346° North 185 213 1,500 780 Descending Boston Center
11:08AM 41.6036 -71.2214 161° South 85 98 3,500  Climbing Boston Center
11:09AM 41.6972 -71.5014 316° Northwest  Level FlightAware Approximate
11:09AM 41.7972 -71.3653 331° Northwest 185 213 1,500  Level Boston Center
11:09AM 41.6214 -71.2078 146° Southeast 87 100 4,200  Climbing Boston Center
11:10AM 41.7722 -71.4189 314° West 192 221 1,500 660 Descending Boston Center
11:10AM 41.6372 -71.1933 129° Southeast 85 98 4,800  Climbing Boston Center
11:11AM 41.8200 -71.4250 317° Northwest 179 206 1,500 -1,500 Descending Boston Center
11:12AM 41.8686 -71.4161 North 179 206 2,100 2,760 Climbing Boston Center
11:12AM 41.6942 -71.1475 131° Southeast 121 139 6,100  Climbing Boston Center
11:13AM 41.9200 -71.4039 320° Northwest 177 204 2,100 -120 Descending Boston Center
11:13AM 41.7169 -71.1731 140° Southeast 124 143 6,000 180 Climbing Boston Center
11:14AM 41.9183 -71.3506 327° Northwest 183 211 2,300  Descending Boston Center
11:14AM 41.7319 -71.2158 152° Southeast 123 142 6,000 180 Climbing Boston Center
11:15AM 41.8881 -71.2956 339° North 183 211 2,500  Descending Boston Center
11:15AM 41.7447 -71.2494 167° South 123 142 6,000  Climbing Boston Center
11:16AM 41.8586 -71.2447 North 179 206 2,500  Descending Boston Center
11:16AM 41.7597 -71.2922 200° South 126 145 6,000  Climbing Boston Center
11:17AM 41.8850 -71.2614 10° North 168 193 2,500  Descending Boston Center
11:17AM 41.7747 -71.3353 207° Southwest 124 143 6,000  Climbing Boston Center
11:18AM 41.8608 -71.3142 10° North 167 192 2,500  Descending Boston Center
11:18AM 41.7897 -71.3783 214° Southwest 122 140 6,000 -120 Climbing Boston Center
11:19AM 41.8258 -71.3411 38° Northeast 146 168 2,400  Descending Boston Center
11:20AM 41.8106 -71.4350 258° West 122 140 6,000 60 Climbing Boston Center
11:20AM 41.7919 -71.2978 100° East 163 188 2,500  Descending Boston Center
11:21AM 41.8261 -71.4753 285° West 125 144 6,000  Climbing Boston Center
11:21AM 41.7900 -71.2506 102° East 161 185 2,500  Descending Boston Center
11:21AM 41.8372 -71.5053 284° West 122 140 6,000  Climbing Boston Center
11:22AM 41.8278 -71.2147 92° East 162 186 2,500  Descending Boston Center
11:22AM 41.8528 -71.5458 276° West 125 144 6,000  Climbing Boston Center
11:23AM 41.8700 -71.1944 86° East 170 196 2,500  Descending Boston Center
11:24AM 41.8836 -71.6264 273° West 125 144 6,000  Climbing Boston Center
11:25AM 41.8792 -71.2975 91° East 163 188 2,500  Descending Boston Center
11:26AM 41.9050 -71.6806 275° West 129 148 6,000  Climbing Boston Center
11:26AM 41.8369 -71.3317 105° East 165 190 2,500  Descending Boston Center
11:26AM 41.9175 -71.7142 286° West 126 145 6,000 -840 Climbing Boston Center
11:27AM 41.8008 -71.3628 114° Southeast 159 183 1,700  Descending Boston Center
11:27AM 41.9336 -71.7608 294° West 128 147 6,000 -720 Climbing Boston Center
11:28AM 41.7675 -71.3906 121° Southeast 146 168 1,000  Descending Boston Center
11:28AM 41.9486 -71.8042 301° West 128 147 6,000 -840 Climbing Boston Center
11:29AM 41.7314 -71.4206 127° Southeast 142 163 200 -3,060 Descending Boston Center
11:30AM 41.6986 -71.4483 212° Southwest 142 163 500 480 Climbing Boston Center
11:31AM 41.6786 -71.4636 210° Southwest 149 171 1,000 900 Climbing Boston Center
11:31AM 41.6619 -71.4794 215° Southwest 156 180 1,500 5,520 Climbing Boston Center
11:32AM 42.0028 -71.9397 315° West 129 148 6,000 2,940 Climbing Boston Center
11:33AM 42.0217 -71.9867 298° West 129 148 6,000  Level Boston Center
11:34AM 42.0389 -72.0303 298° West 129 148 6,000  Level Boston Center
11:35AM 42.0544 -72.0733 296° West 128 147 6,000  Level Boston Center
11:36AM 42.0733 -72.1203 298° West 127 146 6,000  Level Boston Center
11:38AM 42.1058 -72.2069 297° West 130 150 6,000  Level Boston Center
11:39AM 42.1206 -72.2528 293° West 131 151 6,000  Level Boston Center
11:40AM 42.1358 -72.2958 296° West 126 145 6,000  Level Boston Center
11:41AM 42.1517 -72.3361 298° West 125 144 6,000  Level Boston Center
11:42AM 42.1661 -72.3731 298° West 124 143 6,000  Level Boston Center
11:43AM 42.1847 -72.4203 298° West 123 142 6,000  Level Boston Center
11:44AM 42.2025 -72.4614 300° West 127 146 6,000  Level Boston Center
11:45AM 42.2197 -72.5053 298° West 131 151 6,000  Level Boston Center
11:46AM 42.2394 -72.5472 302° West 132 152 6,000  Level Boston Center
11:47AM 42.2572 -72.5883 300° West 129 148 6,000  Level Boston Center
11:48AM 42.2739 -72.6233 303° West 131 151 6,000  Level Boston Center
11:49AM 42.2917 -72.6647 300° West 126 145 6,000  Level Boston Center
11:50AM 42.3053 -72.7044 295° West 129 148 6,000  Level Boston Center
11:51AM 42.3236 -72.7431 303° West 134 154 6,000  Level Boston Center
11:52AM 42.3506 -72.8100 299° West 134 154 6,100  Climbing Boston Center
11:54AM 42.3811 -72.8803 300° West 133 153 6,000 -60 Descending Boston Center
11:55AM 42.3981 -72.9292 295° West 135 155 6,000  Level Boston Center
11:56AM 42.4142 -72.9719 297° West 130 150 6,000  Level Boston Center
11:57AM 42.4317 -73.0181 297° West 128 147 6,000  Level Boston Center
11:58AM 42.4497 -73.0617 299° West 131 151 6,100  Climbing Boston Center
12:00PM 42.4817 -73.1472 299° West 129 148 6,100 -120 Level Boston Center
12:01PM 42.4944 -73.1947 290° West 134 154 5,800 -540 Descending Boston Center
12:02PM 42.5000 -73.2489 278° West 146 168 5,100 -660 Descending Boston Center
12:03PM 42.5042 -73.2967 277° West 141 162 4,600 -600 Descending Boston Center
12:04PM 42.5100 -73.3478 279° West 138 159 4,000 -300 Descending Boston Center
12:05PM 42.5164 -73.3961 280° West 129 148 4,000  Level Boston Center
12:06PM 42.5189 -73.4406 274° West 121 139 4,000  Level Boston Center
12:07PM 42.5231 -73.4883 277° West 122 140 4,000  Level Boston Center
12:08PM 42.5278 -73.5333 278° West 121 139 4,000 -120 Level Boston Center
12:09PM 42.5325 -73.5786 278° West 124 143 3,800 -480 Descending Boston Center
12:10PM 42.5372 -73.6353 276° West 139 160 3,100 -420 Descending Boston Center
12:11PM 42.5433 -73.6836 280° West 133 153 3,000 -300 Descending Boston Center
12:14PM 42.5875 -73.7944 North 111 128 2,000 -300 Descending Boston Center
12:15PM 42.6183 -73.8019 350° North 111 128 2,000 -60 Level Boston Center
12:16PM 42.6506 -73.8011 North 117 135 1,900 -360 Descending Boston Center
12:17PM 42.6869 -73.8019 359° North 126 145 1,400 -660 Descending Boston Center
12:18PM 42.7208 -73.8044 357° North 112 129 600 -780 Descending Boston Center
12:20PM 42.7333 -73.8000 North  Level FlightAware Approximate
12:20PM 42.7491 -73.8020 North  Level Estimated
12:27PM 42.7491 -73.8020 North  Level Estimated
12:28PM 42.7491 -73.8020 North  Level Estimated
12:29PM 42.7491 -73.8020 North  Level Estimated